sensor_id;sensor_type;location;lat;lon;timestamp;pressure;altitude;pressure_sealevel;temperature;humidity
39075;BME280;24826;52.070;20.970;2023-02-26T00:00:50;61452.34;;;-147.04;100.00
39075;BME280;24826;52.070;20.970;2023-02-26T00:03:37;61452.34;;;-147.04;100.00
39075;BME280;24826;52.070;20.970;2023-02-26T00:06:22;61472.22;;;-147.04;100.00
39075;BME280;24826;52.070;20.970;2023-02-26T00:09:07;61496.09;;;-147.04;100.00
39075;BME280;24826;52.070;20.970;2023-02-26T00:11:52;61438.44;;;-147.04;100.00
39075;BME280;24826;52.070;20.970;2023-02-26T00:14:37;61462.28;;;-147.04;99.79
39075;BME280;24826;52.070;20.970;2023-02-26T00:20:35;61490.13;;;-147.04;99.82
39075;BME280;24826;52.070;20.970;2023-02-26T00:23:19;61450.34;;;-147.04;100.00
39075;BME280;24826;52.070;20.970;2023-02-26T00:26:04;61476.22;;;-147.04;100.00
39075;BME280;24826;52.070;20.970;2023-02-26T00:28:48;61482.19;;;-147.04;100.00
39075;BME280;24826;52.070;20.970;2023-02-26T00:31:33;61448.38;;;-147.04;99.48
39075;BME280;24826;52.070;20.970;2023-02-26T00:34:18;61468.25;;;-147.04;98.75
39075;BME280;24826;52.070;20.970;2023-02-26T00:37:11;61464.28;;;-147.04;99.44
39075;BME280;24826;52.070;20.970;2023-02-26T00:42:40;61496.09;;;-147.04;98.00
39075;BME280;24826;52.070;20.970;2023-02-26T00:45:25;61500.06;;;-147.04;97.12
39075;BME280;24826;52.070;20.970;2023-02-26T00:48:21;61462.28;;;-147.04;97.21
39075;BME280;24826;52.070;20.970;2023-02-26T00:51:26;61472.22;;;-147.04;96.24
39075;BME280;24826;52.070;20.970;2023-02-26T00:54:20;61456.31;;;-147.04;94.94
39075;BME280;24826;52.070;20.970;2023-02-26T00:57:04;61454.34;;;-147.04;95.34
39075;BME280;24826;52.070;20.970;2023-02-26T00:59:49;61478.19;;;-147.04;95.66
39075;BME280;24826;52.070;20.970;2023-02-26T01:02:35;61452.34;;;-147.04;96.71
39075;BME280;24826;52.070;20.970;2023-02-26T01:05:20;61476.22;;;-147.04;96.59
39075;BME280;24826;52.070;20.970;2023-02-26T01:08:11;61472.22;;;-147.04;96.37
39075;BME280;24826;52.070;20.970;2023-02-26T01:10:57;61488.13;;;-147.04;95.23
39075;BME280;24826;52.070;20.970;2023-02-26T01:13:41;61490.13;;;-147.04;93.81
39075;BME280;24826;52.070;20.970;2023-02-26T01:16:29;61456.31;;;-147.04;92.99
39075;BME280;24826;52.070;20.970;2023-02-26T01:22:36;61440.41;;;-147.04;93.65
39075;BME280;24826;52.070;20.970;2023-02-26T01:25:29;61456.31;;;-147.04;92.33
39075;BME280;24826;52.070;20.970;2023-02-26T01:28:15;61460.31;;;-147.04;91.51
39075;BME280;24826;52.070;20.970;2023-02-26T01:31:01;61488.13;;;-147.04;91.16
39075;BME280;24826;52.070;20.970;2023-02-26T01:33:52;61468.25;;;-147.04;91.82
39075;BME280;24826;52.070;20.970;2023-02-26T01:36:49;61494.09;;;-147.04;91.08
39075;BME280;24826;52.070;20.970;2023-02-26T01:42:42;61476.22;;;-147.04;91.09
39075;BME280;24826;52.070;20.970;2023-02-26T01:45:34;61440.41;;;-147.04;90.51
39075;BME280;24826;52.070;20.970;2023-02-26T01:48:37;61472.22;;;-147.04;91.26
39075;BME280;24826;52.070;20.970;2023-02-26T01:51:58;61466.25;;;-147.04;90.68
39075;BME280;24826;52.070;20.970;2023-02-26T01:54:42;61450.34;;;-147.04;90.50
39075;BME280;24826;52.070;20.970;2023-02-26T01:57:27;61464.28;;;-147.04;90.02
39075;BME280;24826;52.070;20.970;2023-02-26T02:00:11;61472.22;;;-147.04;89.46
39075;BME280;24826;52.070;20.970;2023-02-26T02:02:56;61478.19;;;-147.04;90.46
39075;BME280;24826;52.070;20.970;2023-02-26T02:05:43;61486.16;;;-147.04;89.77
39075;BME280;24826;52.070;20.970;2023-02-26T02:08:30;61452.34;;;-147.04;89.80
39075;BME280;24826;52.070;20.970;2023-02-26T02:11:16;61482.19;;;-147.04;89.22
39075;BME280;24826;52.070;20.970;2023-02-26T02:17:00;61492.13;;;-147.04;89.40
39075;BME280;24826;52.070;20.970;2023-02-26T02:20:08;61466.25;;;-147.04;89.65
39075;BME280;24826;52.070;20.970;2023-02-26T02:23:11;61442.41;;;-147.04;88.93
39075;BME280;24826;52.070;20.970;2023-02-26T02:29:32;61428.47;;;-147.04;89.31
39075;BME280;24826;52.070;20.970;2023-02-26T02:35:43;61472.22;;;-147.04;89.05
39075;BME280;24826;52.070;20.970;2023-02-26T02:38:56;61468.25;;;-147.04;88.60
39075;BME280;24826;52.070;20.970;2023-02-26T02:41:47;61468.25;;;-147.04;87.95
39075;BME280;24826;52.070;20.970;2023-02-26T02:44:38;61444.41;;;-147.04;88.16
39075;BME280;24826;52.070;20.970;2023-02-26T02:47:24;61472.22;;;-147.04;87.67
39075;BME280;24826;52.070;20.970;2023-02-26T02:50:19;61504.03;;;-147.04;88.36
39075;BME280;24826;52.070;20.970;2023-02-26T02:53:25;61448.38;;;-147.04;87.36
39075;BME280;24826;52.070;20.970;2023-02-26T02:56:18;61488.13;;;-147.04;87.53
39075;BME280;24826;52.070;20.970;2023-02-26T02:59:17;61492.13;;;-147.04;87.26
39075;BME280;24826;52.070;20.970;2023-02-26T03:02:32;61464.28;;;-147.04;86.10
39075;BME280;24826;52.070;20.970;2023-02-26T03:05:19;61460.31;;;-147.04;86.72
39075;BME280;24826;52.070;20.970;2023-02-26T03:08:08;61502.06;;;-147.04;86.07
39075;BME280;24826;52.070;20.970;2023-02-26T03:10:53;61476.22;;;-147.04;87.02
39075;BME280;24826;52.070;20.970;2023-02-26T03:13:39;61430.47;;;-147.04;86.59
39075;BME280;24826;52.070;20.970;2023-02-26T03:19:48;61472.22;;;-147.04;88.01
39075;BME280;24826;52.070;20.970;2023-02-26T03:28:42;61458.31;;;-147.04;87.79
39075;BME280;24826;52.070;20.970;2023-02-26T03:31:36;61458.31;;;-147.04;88.29
39075;BME280;24826;52.070;20.970;2023-02-26T03:34:46;61502.06;;;-147.04;87.81
39075;BME280;24826;52.070;20.970;2023-02-26T03:37:40;61462.28;;;-147.04;88.05
39075;BME280;24826;52.070;20.970;2023-02-26T03:40:30;61464.28;;;-147.04;86.85
39075;BME280;24826;52.070;20.970;2023-02-26T03:43:23;61450.34;;;-147.04;87.41
39075;BME280;24826;52.070;20.970;2023-02-26T03:46:15;61468.25;;;-147.04;87.53
39075;BME280;24826;52.070;20.970;2023-02-26T03:49:06;61476.22;;;-147.04;87.95
39075;BME280;24826;52.070;20.970;2023-02-26T03:51:52;61472.22;;;-147.04;88.90
39075;BME280;24826;52.070;20.970;2023-02-26T03:54:42;61480.19;;;-147.04;88.16
39075;BME280;24826;52.070;20.970;2023-02-26T03:57:29;61468.25;;;-147.04;87.99
39075;BME280;24826;52.070;20.970;2023-02-26T04:00:14;61484.16;;;-147.04;88.16
39075;BME280;24826;52.070;20.970;2023-02-26T04:05:49;61480.19;;;-147.04;89.45
39075;BME280;24826;52.070;20.970;2023-02-26T04:08:35;61434.44;;;-147.04;89.15
39075;BME280;24826;52.070;20.970;2023-02-26T04:11:21;61444.41;;;-147.04;90.02
39075;BME280;24826;52.070;20.970;2023-02-26T04:14:06;61510.00;;;-147.04;90.30
39075;BME280;24826;52.070;20.970;2023-02-26T04:16:50;61456.31;;;-147.04;89.10
39075;BME280;24826;52.070;20.970;2023-02-26T04:19:34;61456.31;;;-147.04;89.05
39075;BME280;24826;52.070;20.970;2023-02-26T04:22:19;61480.19;;;-147.04;89.75
39075;BME280;24826;52.070;20.970;2023-02-26T04:25:04;61488.13;;;-147.04;90.43
39075;BME280;24826;52.070;20.970;2023-02-26T04:27:49;61462.28;;;-147.04;90.54
39075;BME280;24826;52.070;20.970;2023-02-26T04:30:33;61452.34;;;-147.04;90.45
39075;BME280;24826;52.070;20.970;2023-02-26T04:33:18;61454.34;;;-147.04;90.08
39075;BME280;24826;52.070;20.970;2023-02-26T04:36:02;61474.22;;;-147.04;90.33
39075;BME280;24826;52.070;20.970;2023-02-26T04:38:48;61482.19;;;-147.04;89.63
39075;BME280;24826;52.070;20.970;2023-02-26T04:41:32;61476.22;;;-147.04;90.01
39075;BME280;24826;52.070;20.970;2023-02-26T04:44:16;61458.31;;;-147.04;89.67
39075;BME280;24826;52.070;20.970;2023-02-26T04:47:01;61458.31;;;-147.04;89.13
39075;BME280;24826;52.070;20.970;2023-02-26T04:49:46;61702.91;;;-147.04;88.66
39075;BME280;24826;52.070;20.970;2023-02-26T04:52:30;61484.16;;;-147.04;89.76
39075;BME280;24826;52.070;20.970;2023-02-26T04:55:15;61496.09;;;-147.04;89.83
39075;BME280;24826;52.070;20.970;2023-02-26T04:57:59;61456.31;;;-147.04;90.94
39075;BME280;24826;52.070;20.970;2023-02-26T05:00:50;61655.16;;;-147.04;91.80
39075;BME280;24826;52.070;20.970;2023-02-26T05:03:35;61472.22;;;-147.04;91.77
39075;BME280;24826;52.070;20.970;2023-02-26T05:06:20;61474.22;;;-147.04;92.28
39075;BME280;24826;52.070;20.970;2023-02-26T05:09:04;61472.22;;;-147.04;91.92
39075;BME280;24826;52.070;20.970;2023-02-26T05:11:48;61468.25;;;-147.04;92.00
39075;BME280;24826;52.070;20.970;2023-02-26T05:14:32;61468.25;;;-147.04;92.14
39075;BME280;24826;52.070;20.970;2023-02-26T05:17:17;61496.09;;;-147.04;92.48
39075;BME280;24826;52.070;20.970;2023-02-26T05:20:02;61480.19;;;-147.04;91.42
39075;BME280;24826;52.070;20.970;2023-02-26T05:22:46;61460.31;;;-147.04;91.81
39075;BME280;24826;52.070;20.970;2023-02-26T05:25:31;61472.22;;;-147.04;90.66
39075;BME280;24826;52.070;20.970;2023-02-26T05:28:15;61480.19;;;-147.04;91.16
39075;BME280;24826;52.070;20.970;2023-02-26T05:31:00;61468.25;;;-147.04;90.15
39075;BME280;24826;52.070;20.970;2023-02-26T05:33:44;61468.25;;;-147.04;90.00
39075;BME280;24826;52.070;20.970;2023-02-26T05:36:29;61464.28;;;-147.04;89.89
39075;BME280;24826;52.070;20.970;2023-02-26T05:39:14;61486.16;;;-147.04;90.26
39075;BME280;24826;52.070;20.970;2023-02-26T05:41:58;61428.47;;;-147.04;90.88
39075;BME280;24826;52.070;20.970;2023-02-26T05:44:42;61472.22;;;-147.04;89.87
39075;BME280;24826;52.070;20.970;2023-02-26T05:47:26;61482.19;;;-147.04;90.88
39075;BME280;24826;52.070;20.970;2023-02-26T05:50:11;61458.31;;;-147.04;91.23
39075;BME280;24826;52.070;20.970;2023-02-26T05:52:55;61468.25;;;-147.04;91.38
39075;BME280;24826;52.070;20.970;2023-02-26T05:55:40;61456.31;;;-147.04;91.34
39075;BME280;24826;52.070;20.970;2023-02-26T05:58:24;61466.25;;;-147.04;91.73
39075;BME280;24826;52.070;20.970;2023-02-26T06:01:09;61452.34;;;-147.04;90.29
39075;BME280;24826;52.070;20.970;2023-02-26T06:03:53;61484.16;;;-147.04;89.45
39075;BME280;24826;52.070;20.970;2023-02-26T06:06:38;61490.13;;;-147.04;89.43
39075;BME280;24826;52.070;20.970;2023-02-26T06:09:22;61472.22;;;-147.04;90.21
39075;BME280;24826;52.070;20.970;2023-02-26T06:12:07;61486.16;;;-147.04;89.77
39075;BME280;24826;52.070;20.970;2023-02-26T06:14:51;61464.28;;;-147.04;90.13
39075;BME280;24826;52.070;20.970;2023-02-26T06:17:36;61462.28;;;-147.04;89.15
39075;BME280;24826;52.070;20.970;2023-02-26T06:20:20;61440.41;;;-147.04;87.50
39075;BME280;24826;52.070;20.970;2023-02-26T06:23:05;61452.34;;;-147.04;86.33
39075;BME280;24826;52.070;20.970;2023-02-26T06:25:51;61472.22;;;-147.04;85.61
39075;BME280;24826;52.070;20.970;2023-02-26T06:28:36;61488.13;;;-147.04;84.11
39075;BME280;24826;52.070;20.970;2023-02-26T06:31:20;61450.34;;;-147.04;82.23
39075;BME280;24826;52.070;20.970;2023-02-26T06:34:05;61452.34;;;-147.04;80.93
39075;BME280;24826;52.070;20.970;2023-02-26T06:36:49;61456.31;;;-147.04;80.22
39075;BME280;24826;52.070;20.970;2023-02-26T06:39:34;61484.16;;;-147.04;78.58
39075;BME280;24826;52.070;20.970;2023-02-26T06:42:18;61512.00;;;-147.04;78.45
39075;BME280;24826;52.070;20.970;2023-02-26T06:45:03;61462.28;;;-147.04;77.58
39075;BME280;24826;52.070;20.970;2023-02-26T06:47:47;61488.13;;;-147.04;76.52
39075;BME280;24826;52.070;20.970;2023-02-26T06:50:32;61482.19;;;-147.04;76.44
39075;BME280;24826;52.070;20.970;2023-02-26T06:53:16;61488.13;;;-147.04;76.76
39075;BME280;24826;52.070;20.970;2023-02-26T06:56:00;61486.16;;;-147.04;76.23
39075;BME280;24826;52.070;20.970;2023-02-26T06:58:45;61476.22;;;-147.04;74.59
39075;BME280;24826;52.070;20.970;2023-02-26T07:01:29;61438.44;;;-147.04;74.82
39075;BME280;24826;52.070;20.970;2023-02-26T07:04:15;61486.16;;;-147.04;73.84
39075;BME280;24826;52.070;20.970;2023-02-26T07:06:59;61502.06;;;-147.04;73.98
39075;BME280;24826;52.070;20.970;2023-02-26T07:09:43;61490.13;;;-147.04;75.31
39075;BME280;24826;52.070;20.970;2023-02-26T07:12:28;61484.16;;;-147.04;74.45
39075;BME280;24826;52.070;20.970;2023-02-26T07:15:13;61476.22;;;-147.04;73.68
39075;BME280;24826;52.070;20.970;2023-02-26T07:17:57;61492.13;;;-147.04;73.29
39075;BME280;24826;52.070;20.970;2023-02-26T07:20:43;61488.13;;;-147.04;72.24
39075;BME280;24826;52.070;20.970;2023-02-26T07:23:28;61492.13;;;-147.04;73.82
39075;BME280;24826;52.070;20.970;2023-02-26T07:26:12;61480.19;;;-147.04;73.30
39075;BME280;24826;52.070;20.970;2023-02-26T07:28:57;61502.06;;;-147.04;72.26
39075;BME280;24826;52.070;20.970;2023-02-26T07:31:42;61464.28;;;-147.04;72.38
39075;BME280;24826;52.070;20.970;2023-02-26T07:34:26;61496.09;;;-147.04;72.49
39075;BME280;24826;52.070;20.970;2023-02-26T07:37:11;61500.06;;;-147.04;71.07
39075;BME280;24826;52.070;20.970;2023-02-26T07:39:56;61718.81;;;-147.04;71.84
39075;BME280;24826;52.070;20.970;2023-02-26T07:42:40;61535.88;;;-147.04;72.05
39075;BME280;24826;52.070;20.970;2023-02-26T07:45:24;61527.91;;;-147.04;73.02
39075;BME280;24826;52.070;20.970;2023-02-26T07:48:09;61559.72;;;-147.04;73.73
39075;BME280;24826;52.070;20.970;2023-02-26T07:50:54;61535.88;;;-147.04;71.62
39075;BME280;24826;52.070;20.970;2023-02-26T07:53:38;61488.13;;;-147.04;70.64
39075;BME280;24826;52.070;20.970;2023-02-26T07:56:22;61515.97;;;-147.04;71.53
39075;BME280;24826;52.070;20.970;2023-02-26T07:59:08;61555.75;;;-147.04;69.03
39075;BME280;24826;52.070;20.970;2023-02-26T08:01:53;61533.88;;;-147.04;68.48
39075;BME280;24826;52.070;20.970;2023-02-26T08:04:38;61517.97;;;-147.04;66.76
39075;BME280;24826;52.070;20.970;2023-02-26T08:07:22;61523.94;;;-147.04;66.00
39075;BME280;24826;52.070;20.970;2023-02-26T08:10:07;61508.03;;;-147.04;64.85
39075;BME280;24826;52.070;20.970;2023-02-26T08:12:51;61510.00;;;-147.04;63.99
39075;BME280;24826;52.070;20.970;2023-02-26T08:15:35;61510.00;;;-147.04;62.86
39075;BME280;24826;52.070;20.970;2023-02-26T08:18:20;61535.88;;;-147.04;63.40
39075;BME280;24826;52.070;20.970;2023-02-26T08:21:04;61508.03;;;-147.04;63.37
39075;BME280;24826;52.070;20.970;2023-02-26T08:23:49;61476.22;;;-147.04;63.25
39075;BME280;24826;52.070;20.970;2023-02-26T08:26:36;61523.94;;;-147.04;63.98
39075;BME280;24826;52.070;20.970;2023-02-26T08:29:20;61535.88;;;-147.04;63.06
39075;BME280;24826;52.070;20.970;2023-02-26T08:32:05;61514.00;;;-147.04;64.67
39075;BME280;24826;52.070;20.970;2023-02-26T08:34:49;61517.97;;;-147.04;65.50
39075;BME280;24826;52.070;20.970;2023-02-26T08:37:33;61492.13;;;-147.04;65.78
39075;BME280;24826;52.070;20.970;2023-02-26T08:40:17;61525.91;;;-147.04;65.29
39075;BME280;24826;52.070;20.970;2023-02-26T08:43:01;61563.69;;;-147.04;65.13
39075;BME280;24826;52.070;20.970;2023-02-26T08:45:47;61517.97;;;-147.04;65.31
39075;BME280;24826;52.070;20.970;2023-02-26T08:48:32;61484.16;;;-147.04;64.33
39075;BME280;24826;52.070;20.970;2023-02-26T08:51:19;61500.06;;;-147.04;65.24
39075;BME280;24826;52.070;20.970;2023-02-26T08:54:03;61533.88;;;-147.04;63.82
39075;BME280;24826;52.070;20.970;2023-02-26T08:56:47;61523.94;;;-147.04;63.89
39075;BME280;24826;52.070;20.970;2023-02-26T08:59:32;61515.97;;;-147.04;64.20
39075;BME280;24826;52.070;20.970;2023-02-26T09:02:16;61533.88;;;-147.04;64.92
39075;BME280;24826;52.070;20.970;2023-02-26T09:05:00;61482.19;;;-147.04;63.64
39075;BME280;24826;52.070;20.970;2023-02-26T09:07:45;61484.16;;;-147.04;63.06
39075;BME280;24826;52.070;20.970;2023-02-26T09:10:29;61519.94;;;-147.04;62.57
39075;BME280;24826;52.070;20.970;2023-02-26T09:13:14;61512.00;;;-147.04;60.75
39075;BME280;24826;52.070;20.970;2023-02-26T09:15:58;61494.09;;;-147.04;61.61
39075;BME280;24826;52.070;20.970;2023-02-26T09:18:43;61515.97;;;-147.04;61.51
39075;BME280;24826;52.070;20.970;2023-02-26T09:21:27;61506.03;;;-147.04;61.82
39075;BME280;24826;52.070;20.970;2023-02-26T09:24:11;61492.13;;;-147.04;62.18
39075;BME280;24826;52.070;20.970;2023-02-26T09:26:56;61508.03;;;-147.04;61.60
39075;BME280;24826;52.070;20.970;2023-02-26T09:29:41;61500.06;;;-147.04;61.58
39075;BME280;24826;52.070;20.970;2023-02-26T09:32:25;61531.88;;;-147.04;61.32
39075;BME280;24826;52.070;20.970;2023-02-26T09:35:10;61480.19;;;-147.04;59.77
39075;BME280;24826;52.070;20.970;2023-02-26T09:37:54;61525.91;;;-147.04;59.86
39075;BME280;24826;52.070;20.970;2023-02-26T09:50:00;61519.94;;;-147.04;60.24
39075;BME280;24826;52.070;20.970;2023-02-26T09:53:04;61508.03;;;-147.04;59.36
39075;BME280;24826;52.070;20.970;2023-02-26T09:55:54;61523.94;;;-147.04;58.89
39075;BME280;24826;52.070;20.970;2023-02-26T09:58:42;61539.84;;;-147.04;60.04
39075;BME280;24826;52.070;20.970;2023-02-26T10:01:52;61502.06;;;-147.04;59.57
39075;BME280;24826;52.070;20.970;2023-02-26T10:07:43;61517.97;;;-147.04;59.44
39075;BME280;24826;52.070;20.970;2023-02-26T10:10:55;61529.91;;;-147.04;59.97
39075;BME280;24826;52.070;20.970;2023-02-26T10:13:50;61521.94;;;-147.04;60.54
39075;BME280;24826;52.070;20.970;2023-02-26T10:16:38;61500.06;;;-147.04;60.04
39075;BME280;24826;52.070;20.970;2023-02-26T10:19:29;61502.06;;;-147.04;60.35
39075;BME280;24826;52.070;20.970;2023-02-26T10:22:27;61533.88;;;-147.04;61.16
39075;BME280;24826;52.070;20.970;2023-02-26T10:25:21;61551.78;;;-147.04;60.00
39075;BME280;24826;52.070;20.970;2023-02-26T10:28:28;61543.81;;;-147.04;60.44
39075;BME280;24826;52.070;20.970;2023-02-26T10:34:31;61510.00;;;-147.04;62.93
39075;BME280;24826;52.070;20.970;2023-02-26T10:40:38;61506.03;;;-147.04;61.77
39075;BME280;24826;52.070;20.970;2023-02-26T10:43:46;61502.06;;;-147.04;61.61
39075;BME280;24826;52.070;20.970;2023-02-26T10:50:07;61512.00;;;-147.04;63.92
39075;BME280;24826;52.070;20.970;2023-02-26T10:52:50;61488.13;;;-147.04;65.03
39075;BME280;24826;52.070;20.970;2023-02-26T10:55:45;61531.88;;;-147.04;64.56
39075;BME280;24826;52.070;20.970;2023-02-26T10:58:31;61492.13;;;-147.04;64.54
39075;BME280;24826;52.070;20.970;2023-02-26T11:01:18;61472.22;;;-147.04;64.07
39075;BME280;24826;52.070;20.970;2023-02-26T11:04:11;61472.22;;;-147.04;62.56
39075;BME280;24826;52.070;20.970;2023-02-26T11:07:00;61515.97;;;-147.04;63.03
39075;BME280;24826;52.070;20.970;2023-02-26T11:09:46;61444.41;;;-147.04;62.55
39075;BME280;24826;52.070;20.970;2023-02-26T11:12:31;61468.25;;;-147.04;62.92
39075;BME280;24826;52.070;20.970;2023-02-26T11:15:20;61468.25;;;-147.04;62.39
39075;BME280;24826;52.070;20.970;2023-02-26T11:18:04;61537.84;;;-147.04;61.51
39075;BME280;24826;52.070;20.970;2023-02-26T11:20:56;61529.91;;;-147.04;62.61
39075;BME280;24826;52.070;20.970;2023-02-26T11:23:42;61478.19;;;-147.04;59.70
39075;BME280;24826;52.070;20.970;2023-02-26T11:26:31;61519.94;;;-147.04;58.62
39075;BME280;24826;52.070;20.970;2023-02-26T11:29:19;61523.94;;;-147.04;60.01
39075;BME280;24826;52.070;20.970;2023-02-26T11:32:04;61537.84;;;-147.04;59.40
39075;BME280;24826;52.070;20.970;2023-02-26T11:34:50;61508.03;;;-147.04;60.06
39075;BME280;24826;52.070;20.970;2023-02-26T11:37:38;61510.00;;;-147.04;59.75
39075;BME280;24826;52.070;20.970;2023-02-26T11:40:39;61521.94;;;-147.04;59.88
39075;BME280;24826;52.070;20.970;2023-02-26T11:43:32;61537.84;;;-147.04;59.76
39075;BME280;24826;52.070;20.970;2023-02-26T11:46:18;61535.88;;;-147.04;60.22
39075;BME280;24826;52.070;20.970;2023-02-26T11:49:08;61529.91;;;-147.04;58.01
39075;BME280;24826;52.070;20.970;2023-02-26T11:52:17;61541.81;;;-147.04;57.53
39075;BME280;24826;52.070;20.970;2023-02-26T11:55:12;61523.94;;;-147.04;55.76
39075;BME280;24826;52.070;20.970;2023-02-26T11:58:00;61484.16;;;-147.04;54.05
39075;BME280;24826;52.070;20.970;2023-02-26T12:00:45;61527.91;;;-147.04;54.97
39075;BME280;24826;52.070;20.970;2023-02-26T12:03:32;61496.09;;;-147.04;54.86
39075;BME280;24826;52.070;20.970;2023-02-26T12:06:20;61508.03;;;-147.04;55.55
39075;BME280;24826;52.070;20.970;2023-02-26T12:09:10;61514.00;;;-147.04;55.11
39075;BME280;24826;52.070;20.970;2023-02-26T12:18:05;61529.91;;;-147.04;55.33
39075;BME280;24826;52.070;20.970;2023-02-26T12:27:08;61508.03;;;-147.04;55.81
39075;BME280;24826;52.070;20.970;2023-02-26T12:33:19;61508.03;;;-147.04;56.96
39075;BME280;24826;52.070;20.970;2023-02-26T13:04:11;61492.13;;;-147.04;56.46
39075;BME280;24826;52.070;20.970;2023-02-26T13:07:24;61718.81;;;-147.04;58.06
39075;BME280;24826;52.070;20.970;2023-02-26T13:16:01;61488.13;;;-147.04;57.20
39075;BME280;24826;52.070;20.970;2023-02-26T13:21:48;61510.00;;;-147.04;55.48
39075;BME280;24826;52.070;20.970;2023-02-26T13:24:40;61480.19;;;-147.04;56.87
39075;BME280;24826;52.070;20.970;2023-02-26T13:27:31;61500.06;;;-147.04;56.50
39075;BME280;24826;52.070;20.970;2023-02-26T13:33:14;61500.06;;;-147.04;52.68
39075;BME280;24826;52.070;20.970;2023-02-26T13:36:01;61488.13;;;-147.04;51.00
39075;BME280;24826;52.070;20.970;2023-02-26T13:48:26;61490.13;;;-147.04;51.02
39075;BME280;24826;52.070;20.970;2023-02-26T14:02:57;61496.09;;;-147.04;51.56
39075;BME280;24826;52.070;20.970;2023-02-26T14:08:43;61498.09;;;-147.04;51.83
39075;BME280;24826;52.070;20.970;2023-02-26T14:14:22;61484.16;;;-147.04;51.31
39075;BME280;24826;52.070;20.970;2023-02-26T14:22:40;61468.25;;;-147.04;51.54
39075;BME280;24826;52.070;20.970;2023-02-26T14:25:31;61488.13;;;-147.04;51.66
39075;BME280;24826;52.070;20.970;2023-02-26T14:31:15;61504.03;;;-147.04;52.27
39075;BME280;24826;52.070;20.970;2023-02-26T14:34:10;61472.22;;;-147.04;52.25
39075;BME280;24826;52.070;20.970;2023-02-26T14:36:58;61476.22;;;-147.04;51.82
39075;BME280;24826;52.070;20.970;2023-02-26T14:39:48;61494.09;;;-147.04;52.51
39075;BME280;24826;52.070;20.970;2023-02-26T14:42:37;61488.13;;;-147.04;53.01
39075;BME280;24826;52.070;20.970;2023-02-26T14:45:28;61448.38;;;-147.04;52.76
39075;BME280;24826;52.070;20.970;2023-02-26T14:48:15;61432.47;;;-147.04;53.31
39075;BME280;24826;52.070;20.970;2023-02-26T14:54:29;61446.38;;;-147.04;53.99
39075;BME280;24826;52.070;20.970;2023-02-26T14:57:39;61424.50;;;-147.04;52.79
39075;BME280;24826;52.070;20.970;2023-02-26T15:07:10;61422.53;;;-147.04;53.69
39075;BME280;24826;52.070;20.970;2023-02-26T15:13:35;61402.63;;;-147.04;53.26
39075;BME280;24826;52.070;20.970;2023-02-26T15:25:38;61388.72;;;-147.04;54.05
39075;BME280;24826;52.070;20.970;2023-02-26T15:28:39;61386.72;;;-147.04;53.98
39075;BME280;24826;52.070;20.970;2023-02-26T15:31:33;61402.63;;;-147.04;54.43
39075;BME280;24826;52.070;20.970;2023-02-26T15:34:19;61446.38;;;-147.04;55.26
39075;BME280;24826;52.070;20.970;2023-02-26T15:37:03;61416.56;;;-147.04;55.57
39075;BME280;24826;52.070;20.970;2023-02-26T15:39:49;61420.53;;;-147.04;56.30
39075;BME280;24826;52.070;20.970;2023-02-26T15:42:37;61432.47;;;-147.04;56.70
39075;BME280;24826;52.070;20.970;2023-02-26T15:45:36;61424.50;;;-147.04;56.86
39075;BME280;24826;52.070;20.970;2023-02-26T15:48:27;61392.69;;;-147.04;58.29
39075;BME280;24826;52.070;20.970;2023-02-26T15:51:15;61448.38;;;-147.04;59.18
39075;BME280;24826;52.070;20.970;2023-02-26T15:54:02;61460.31;;;-147.04;61.09
39075;BME280;24826;52.070;20.970;2023-02-26T15:56:48;61416.56;;;-147.04;61.65
39075;BME280;24826;52.070;20.970;2023-02-26T15:59:32;61396.66;;;-147.04;63.45
39075;BME280;24826;52.070;20.970;2023-02-26T16:02:29;61400.66;;;-147.04;64.04
39075;BME280;24826;52.070;20.970;2023-02-26T16:05:15;61412.56;;;-147.04;63.54
39075;BME280;24826;52.070;20.970;2023-02-26T16:08:00;61448.38;;;-147.04;63.21
39075;BME280;24826;52.070;20.970;2023-02-26T16:10:44;61444.41;;;-147.04;64.77
39075;BME280;24826;52.070;20.970;2023-02-26T16:13:31;61432.47;;;-147.04;66.19
39075;BME280;24826;52.070;20.970;2023-02-26T16:16:28;61438.44;;;-147.04;65.52
39075;BME280;24826;52.070;20.970;2023-02-26T16:19:22;61432.47;;;-147.04;66.56
39075;BME280;24826;52.070;20.970;2023-02-26T16:22:25;61462.28;;;-147.04;67.39
39075;BME280;24826;52.070;20.970;2023-02-26T16:25:22;61452.34;;;-147.04;68.93
39075;BME280;24826;52.070;20.970;2023-02-26T16:28:14;61432.47;;;-147.04;68.10
39075;BME280;24826;52.070;20.970;2023-02-26T16:31:02;61468.25;;;-147.04;69.08
39075;BME280;24826;52.070;20.970;2023-02-26T16:33:57;61448.38;;;-147.04;69.91
39075;BME280;24826;52.070;20.970;2023-02-26T16:36:41;61480.19;;;-147.04;70.65
39075;BME280;24826;52.070;20.970;2023-02-26T16:39:29;61472.22;;;-147.04;72.65
39075;BME280;24826;52.070;20.970;2023-02-26T16:42:19;61478.19;;;-147.04;72.20
39075;BME280;24826;52.070;20.970;2023-02-26T16:45:18;61436.44;;;-147.04;72.87
39075;BME280;24826;52.070;20.970;2023-02-26T16:48:17;61476.22;;;-147.04;73.45
39075;BME280;24826;52.070;20.970;2023-02-26T16:51:08;61470.25;;;-147.04;73.15
39075;BME280;24826;52.070;20.970;2023-02-26T16:54:07;61444.41;;;-147.04;74.77
39075;BME280;24826;52.070;20.970;2023-02-26T16:56:59;61476.22;;;-147.04;74.09
39075;BME280;24826;52.070;20.970;2023-02-26T16:59:53;61430.47;;;-147.04;73.75
39075;BME280;24826;52.070;20.970;2023-02-26T17:02:40;61464.28;;;-147.04;73.66
39075;BME280;24826;52.070;20.970;2023-02-26T17:05:30;61452.34;;;-147.04;74.61
39075;BME280;24826;52.070;20.970;2023-02-26T17:08:18;61482.19;;;-147.04;74.50